createdAt,value
2022-10-31T00:02:18.516Z,8.11
2022-10-31T00:05:46.954Z,8.03
2022-10-31T00:09:05.727Z,8.08
2022-10-31T00:12:23.923Z,8.06
2022-10-31T00:15:34.408Z,7.98
2022-10-31T00:18:36.091Z,7.95
2022-10-31T00:21:38.042Z,7.87
2022-10-31T00:24:39.769Z,7.66
2022-10-31T00:27:42.175Z,7.40
2022-10-31T00:30:43.985Z,7.23
2022-10-31T00:33:45.866Z,7.17
2022-10-31T00:36:47.644Z,7.11
2022-10-31T00:39:50.782Z,7.06
2022-10-31T00:42:52.567Z,7.00
2022-10-31T00:45:55.079Z,6.94
2022-10-31T00:48:56.810Z,6.92
2022-10-31T00:51:58.558Z,6.84
2022-10-31T00:55:00.445Z,6.79
2022-10-31T00:58:02.559Z,6.75
2022-10-31T01:01:05.485Z,6.72
2022-10-31T01:04:07.541Z,6.67
2022-10-31T01:07:09.437Z,6.61
2022-10-31T01:10:12.178Z,6.60
2022-10-31T01:13:14.004Z,6.59
2022-10-31T01:16:18.874Z,6.62
2022-10-31T01:19:21.035Z,6.69
2022-10-31T01:22:22.720Z,6.76
2022-10-31T01:25:27.530Z,6.83
2022-10-31T01:28:29.406Z,6.84
2022-10-31T01:31:33.580Z,6.81
2022-10-31T01:34:35.443Z,6.90
2022-10-31T01:37:37.185Z,6.91
2022-10-31T01:40:38.938Z,6.94
2022-10-31T01:44:23.708Z,6.92
2022-10-31T01:47:43.226Z,6.85
2022-10-31T01:50:46.416Z,6.85
2022-10-31T01:53:48.243Z,6.87
2022-10-31T01:56:52.238Z,6.88
2022-10-31T01:59:57.147Z,6.88
2022-10-31T02:03:01.213Z,6.92
2022-10-31T02:06:04.640Z,6.93
2022-10-31T02:09:07.328Z,7.09
2022-10-31T02:12:11.043Z,7.37
2022-10-31T02:15:12.801Z,7.45
2022-10-31T02:18:14.640Z,7.58
2022-10-31T02:21:29.631Z,7.76
2022-10-31T02:24:31.317Z,7.89
2022-10-31T02:28:04.645Z,7.92
2022-10-31T02:31:14.089Z,7.95
2022-10-31T02:34:22.191Z,7.95
2022-10-31T02:37:48.778Z,8.00
2022-10-31T02:41:13.866Z,8.02
2022-10-31T02:44:27.607Z,7.79
2022-10-31T02:47:31.358Z,7.58
2022-10-31T02:50:35.824Z,7.36
2022-10-31T02:53:38.982Z,7.17
2022-10-31T02:56:40.754Z,7.04
2022-10-31T02:59:48.539Z,6.95
2022-10-31T03:02:55.541Z,6.87
2022-10-31T03:06:09.253Z,6.91
2022-10-31T03:09:26.062Z,6.91
2022-10-31T03:12:31.343Z,6.78
2022-10-31T03:15:40.392Z,6.47
2022-10-31T03:18:50.253Z,6.14
2022-10-31T03:21:59.546Z,6.05
2022-10-31T03:25:03.453Z,6.09
2022-10-31T03:28:08.850Z,6.04
2022-10-31T03:31:11.714Z,5.89
2022-10-31T03:34:14.021Z,5.70
2022-10-31T03:37:19.087Z,5.60
2022-10-31T03:40:23.077Z,5.65
2022-10-31T03:43:29.416Z,5.67
2022-10-31T03:46:32.185Z,5.63
2022-10-31T03:49:34.673Z,5.59
2022-10-31T03:52:39.394Z,5.59
2022-10-31T03:55:52.595Z,5.64
2022-10-31T03:59:07.366Z,5.71
2022-10-31T04:02:21.814Z,5.76
2022-10-31T04:05:23.830Z,5.91
2022-10-31T04:08:28.376Z,6.08
2022-10-31T04:11:34.182Z,6.19
2022-10-31T04:14:39.572Z,6.18
2022-10-31T04:17:43.250Z,6.12
2022-10-31T04:20:44.986Z,6.13
2022-10-31T04:23:46.725Z,6.18
2022-10-31T04:26:48.914Z,6.28
2022-10-31T04:29:51.042Z,6.37
2022-10-31T04:32:52.932Z,6.43
2022-10-31T04:35:54.706Z,6.49
2022-10-31T04:38:56.377Z,6.45
2022-10-31T04:41:57.913Z,6.34
2022-10-31T04:44:59.525Z,6.27
2022-10-31T04:48:01.655Z,6.16
2022-10-31T04:51:04.036Z,5.94
2022-10-31T04:54:05.776Z,5.65
2022-10-31T04:57:07.603Z,5.52
2022-10-31T05:00:10.512Z,5.46
2022-10-31T05:03:12.166Z,5.41
2022-10-31T05:06:13.768Z,5.38
2022-10-31T05:09:15.481Z,5.37
2022-10-31T05:12:17.082Z,5.40
2022-10-31T05:15:19.360Z,5.41
2022-10-31T05:18:21.206Z,5.39
2022-10-31T05:21:22.968Z,5.41
2022-10-31T05:24:24.750Z,5.44
2022-10-31T05:27:26.425Z,5.37
2022-10-31T05:30:32.359Z,5.03
2022-10-31T05:33:34.033Z,4.78
2022-10-31T05:36:35.863Z,4.74
2022-10-31T05:39:38.006Z,4.75
2022-10-31T05:42:41.358Z,4.74
2022-10-31T05:45:42.972Z,4.68
2022-10-31T05:48:44.612Z,4.63
2022-10-31T05:51:46.381Z,4.71
2022-10-31T05:54:47.948Z,4.81
2022-10-31T05:57:49.949Z,4.90
2022-10-31T06:00:51.822Z,4.96
2022-10-31T06:03:53.744Z,5.07
2022-10-31T06:06:55.399Z,5.28
2022-10-31T06:09:57.053Z,5.56
2022-10-31T06:12:58.749Z,5.86
2022-10-31T06:16:00.438Z,6.24
2022-10-31T06:19:01.974Z,6.65
2022-10-31T06:22:03.927Z,7.07
2022-10-31T06:25:05.819Z,7.41
2022-10-31T06:28:07.430Z,7.69
2022-10-31T06:31:09.185Z,7.87
2022-10-31T06:34:11.000Z,8.04
2022-10-31T06:37:13.274Z,8.12
2022-10-31T06:40:14.911Z,8.23
2022-10-31T06:43:16.573Z,8.40
2022-10-31T06:46:18.444Z,8.69
2022-10-31T06:49:20.195Z,9.04
2022-10-31T06:52:24.436Z,9.21
2022-10-31T06:55:27.401Z,9.39
2022-10-31T06:58:29.280Z,9.61
2022-10-31T07:01:31.055Z,9.79
2022-10-31T07:04:32.878Z,10.06
2022-10-31T07:07:34.575Z,10.33
2022-10-31T07:10:40.294Z,10.49
2022-10-31T07:13:42.692Z,10.60
2022-10-31T07:16:44.334Z,10.66
2022-10-31T07:19:45.964Z,10.78
2022-10-31T07:22:50.545Z,10.97
2022-10-31T07:25:57.083Z,11.07
2022-10-31T07:29:00.264Z,11.15
2022-10-31T07:32:02.825Z,11.26
2022-10-31T07:35:04.798Z,11.48
2022-10-31T07:38:11.319Z,11.68
2022-10-31T07:41:13.064Z,11.90
2022-10-31T07:44:14.755Z,12.14
2022-10-31T07:47:16.421Z,12.41
2022-10-31T07:50:23.680Z,12.69
2022-10-31T07:53:25.345Z,13.01
2022-10-31T07:56:27.053Z,13.33
2022-10-31T07:59:28.717Z,13.61
2022-10-31T08:02:30.448Z,13.90
2022-10-31T08:05:33.545Z,14.08
2022-10-31T08:08:37.552Z,14.24
2022-10-31T08:11:40.318Z,14.38
2022-10-31T08:14:42.084Z,14.52
2022-10-31T08:17:43.785Z,14.73
2022-10-31T08:20:45.724Z,15.09
2022-10-31T08:23:47.437Z,15.60
2022-10-31T08:26:49.243Z,16.10
2022-10-31T08:29:50.945Z,16.42
2022-10-31T08:33:02.653Z,16.76
2022-10-31T08:36:04.798Z,17.07
2022-10-31T08:39:06.517Z,17.28
2022-10-31T08:42:08.396Z,17.61
2022-10-31T08:45:10.530Z,18.00
2022-10-31T08:48:14.188Z,18.34
2022-10-31T08:51:15.844Z,18.46
2022-10-31T08:54:17.566Z,18.62
2022-10-31T08:57:19.622Z,18.89
2022-10-31T09:00:21.446Z,19.15
2022-10-31T09:03:28.722Z,19.38
2022-10-31T09:06:30.732Z,19.71
2022-10-31T09:09:32.430Z,19.95
2022-10-31T09:12:34.038Z,20.07
2022-10-31T09:15:37.679Z,20.44
2022-10-31T09:18:39.436Z,20.75
2022-10-31T09:21:41.132Z,21.14
2022-10-31T09:24:42.805Z,21.43
2022-10-31T09:27:44.475Z,21.70
2022-10-31T09:30:48.597Z,22.02
2022-10-31T09:33:50.783Z,21.96
2022-10-31T09:36:54.009Z,22.06
2022-10-31T09:39:55.724Z,22.39
2022-10-31T09:43:00.108Z,22.49
2022-10-31T09:46:23.739Z,22.62
2022-10-31T09:49:46.680Z,22.95
2022-10-31T09:53:09.462Z,23.08
2022-10-31T09:56:15.330Z,23.25
2022-10-31T09:59:26.749Z,23.23
2022-10-31T10:02:33.789Z,23.26
2022-10-31T10:05:42.356Z,23.20
2022-10-31T10:08:44.277Z,23.27
2022-10-31T10:12:07.663Z,23.40
2022-10-31T10:15:27.806Z,23.71
2022-10-31T10:18:57.889Z,23.71
2022-10-31T10:22:02.511Z,23.85
2022-10-31T10:25:16.481Z,23.70
2022-10-31T10:28:31.622Z,23.73
2022-10-31T10:31:41.908Z,23.62
2022-10-31T10:34:49.132Z,23.67
2022-10-31T10:37:54.392Z,23.99
2022-10-31T10:40:56.240Z,24.05
2022-10-31T10:43:58.188Z,24.25
2022-10-31T10:47:19.145Z,24.37
2022-10-31T10:50:28.866Z,24.59
2022-10-31T10:53:50.110Z,24.78
2022-10-31T10:57:10.305Z,24.77
2022-10-31T11:00:18.951Z,24.91
2022-10-31T11:03:20.769Z,25.09
2022-10-31T11:06:27.018Z,25.26
2022-10-31T11:09:28.972Z,25.29
2022-10-31T11:12:33.300Z,25.45
2022-10-31T11:15:39.167Z,25.36
2022-10-31T11:18:44.289Z,25.48
2022-10-31T11:21:53.755Z,25.21
2022-10-31T11:24:56.119Z,25.03
2022-10-31T11:28:10.286Z,24.83
2022-10-31T11:31:16.628Z,24.54
2022-10-31T11:34:33.655Z,24.02
2022-10-31T11:37:36.710Z,23.43
2022-10-31T11:40:38.364Z,22.94
2022-10-31T11:43:46.363Z,22.44
2022-10-31T11:47:11.368Z,22.03
2022-10-31T11:50:20.683Z,21.80
2022-10-31T11:53:31.015Z,21.67
2022-10-31T11:56:43.073Z,21.58
2022-10-31T11:59:55.573Z,21.40
2022-10-31T12:03:25.104Z,21.31
2022-10-31T12:06:33.323Z,21.22
2022-10-31T12:09:36.987Z,21.15
2022-10-31T12:13:12.937Z,21.14
2022-10-31T12:16:34.299Z,21.11
2022-10-31T12:19:42.018Z,21.11
2022-10-31T12:22:59.582Z,21.12
2022-10-31T12:26:24.953Z,21.11
2022-10-31T12:29:35.758Z,21.08
2022-10-31T12:32:56.331Z,21.08
2022-10-31T12:36:16.879Z,21.15
2022-10-31T12:39:41.488Z,21.22
2022-10-31T12:43:01.130Z,21.24
2022-10-31T12:46:04.265Z,21.24
2022-10-31T12:49:44.237Z,21.28
2022-10-31T12:52:48.814Z,21.35
2022-10-31T12:56:13.408Z,21.35
2022-10-31T12:59:24.311Z,21.36
2022-10-31T13:02:44.867Z,21.34
2022-10-31T13:05:50.935Z,21.35
2022-10-31T13:08:55.672Z,21.41
2022-10-31T13:12:06.086Z,21.41
2022-10-31T13:15:28.871Z,21.41
2022-10-31T13:18:34.167Z,21.42
2022-10-31T13:21:41.302Z,21.45
2022-10-31T13:25:04.851Z,21.43
2022-10-31T13:28:46.633Z,21.38
2022-10-31T13:31:48.544Z,21.34
2022-10-31T13:34:57.341Z,21.31
2022-10-31T13:38:04.252Z,21.30
2022-10-31T13:41:12.038Z,21.31
2022-10-31T13:44:25.074Z,21.26
2022-10-31T13:47:30.452Z,21.19
2022-10-31T13:50:34.164Z,21.11
2022-10-31T13:53:40.629Z,21.06
2022-10-31T13:56:42.364Z,21.02
2022-10-31T13:59:50.767Z,20.98
2022-10-31T14:02:55.491Z,20.91
2022-10-31T14:05:58.651Z,20.83
2022-10-31T14:09:00.346Z,20.76
2022-10-31T14:12:05.753Z,20.70
2022-10-31T14:15:10.456Z,20.65
2022-10-31T14:18:24.744Z,20.60
2022-10-31T14:21:26.601Z,20.53
2022-10-31T14:24:28.307Z,20.43
2022-10-31T14:27:29.948Z,20.34
2022-10-31T14:30:32.139Z,20.27
2022-10-31T14:33:34.579Z,20.20
2022-10-31T14:37:00.592Z,20.13
2022-10-31T14:40:27.143Z,20.03
2022-10-31T14:43:53.403Z,19.86
2022-10-31T14:47:03.240Z,19.70
2022-10-31T14:50:10.819Z,19.56
2022-10-31T14:53:21.734Z,19.39
2022-10-31T14:56:36.042Z,19.19
2022-10-31T14:59:39.355Z,19.01
2022-10-31T15:03:08.917Z,18.83
2022-10-31T15:06:15.491Z,18.50
2022-10-31T15:09:31.074Z,18.11
2022-10-31T15:12:35.144Z,17.80
2022-10-31T15:15:37.563Z,17.61
2022-10-31T15:19:04.659Z,17.44
2022-10-31T15:22:06.818Z,17.26
2022-10-31T15:25:18.782Z,17.03
2022-10-31T15:28:25.865Z,16.74
2022-10-31T15:31:27.529Z,16.49
2022-10-31T15:34:29.184Z,16.28
2022-10-31T15:37:31.209Z,16.12
2022-10-31T15:40:33.020Z,15.94
2022-10-31T15:43:38.567Z,15.78
2022-10-31T15:46:40.346Z,15.64
2022-10-31T15:49:47.483Z,15.51
2022-10-31T15:52:50.982Z,15.36
2022-10-31T15:55:56.156Z,15.12
2022-10-31T15:59:00.212Z,14.92
2022-10-31T16:02:04.341Z,14.74
2022-10-31T16:05:33.455Z,14.62
2022-10-31T16:08:36.548Z,14.49
2022-10-31T16:11:39.440Z,14.37
2022-10-31T16:14:42.424Z,14.24
2022-10-31T16:17:49.114Z,14.12
2022-10-31T16:20:53.927Z,13.99
2022-10-31T16:24:03.835Z,13.88
2022-10-31T16:27:18.835Z,13.77
2022-10-31T16:30:31.870Z,13.65
2022-10-31T16:33:37.467Z,13.54
2022-10-31T16:36:40.751Z,13.44
2022-10-31T16:39:42.504Z,13.33
2022-10-31T16:42:45.448Z,13.21
2022-10-31T16:45:49.041Z,13.10
2022-10-31T16:48:51.172Z,13.01
2022-10-31T16:51:52.943Z,12.90
2022-10-31T16:54:55.660Z,12.79
2022-10-31T16:57:58.486Z,12.68
2022-10-31T17:01:02.329Z,12.58
2022-10-31T17:04:04.129Z,12.49
2022-10-31T17:07:05.786Z,12.43
2022-10-31T17:10:08.712Z,12.37
2022-10-31T17:13:15.615Z,12.30
2022-10-31T17:16:17.503Z,12.25
2022-10-31T17:19:19.627Z,12.17
2022-10-31T17:22:21.353Z,12.10
2022-10-31T17:25:25.745Z,11.94
2022-10-31T17:28:27.449Z,11.72
2022-10-31T17:31:31.254Z,11.54
2022-10-31T17:34:33.051Z,11.41
2022-10-31T17:37:35.167Z,11.29
2022-10-31T17:40:39.080Z,11.21
2022-10-31T17:43:40.795Z,11.06
2022-10-31T17:46:42.713Z,10.72
2022-10-31T17:49:44.499Z,10.50
2022-10-31T17:52:46.468Z,10.41
2022-10-31T17:55:48.119Z,10.38
2022-10-31T17:58:49.776Z,10.17
2022-10-31T18:01:51.660Z,9.85
2022-10-31T18:04:53.597Z,9.59
2022-10-31T18:07:57.287Z,9.41
2022-10-31T18:11:06.564Z,9.28
2022-10-31T18:14:09.002Z,9.16
2022-10-31T18:17:10.807Z,9.11
2022-10-31T18:20:12.875Z,9.14
2022-10-31T18:23:14.863Z,9.18
2022-10-31T18:26:16.583Z,9.29
2022-10-31T18:29:18.302Z,9.22
2022-10-31T18:32:19.921Z,9.03
2022-10-31T18:35:21.713Z,8.97
2022-10-31T18:38:23.612Z,8.95
2022-10-31T18:41:25.898Z,8.93
2022-10-31T18:44:28.007Z,8.92
2022-10-31T18:47:29.661Z,8.88
2022-10-31T18:50:31.341Z,8.89
2022-10-31T18:53:33.544Z,8.91
2022-10-31T18:56:35.323Z,8.95
2022-10-31T18:59:37.095Z,9.01
2022-10-31T19:02:38.916Z,9.02
2022-10-31T19:05:40.669Z,9.00
2022-10-31T19:08:45.000Z,8.94
2022-10-31T19:11:46.883Z,8.77
2022-10-31T19:14:49.302Z,8.64
2022-10-31T19:17:51.149Z,8.49
2022-10-31T19:20:52.981Z,8.41
2022-10-31T19:23:56.527Z,8.41
2022-10-31T19:27:00.679Z,8.45
2022-10-31T19:30:02.324Z,8.49
2022-10-31T19:33:04.151Z,8.43
2022-10-31T19:36:11.453Z,8.28
2022-10-31T19:39:13.447Z,8.10
2022-10-31T19:42:15.060Z,7.92
2022-10-31T19:45:17.387Z,7.78
2022-10-31T19:48:19.010Z,7.65
2022-10-31T19:51:21.768Z,7.51
2022-10-31T19:54:23.387Z,7.35
2022-10-31T19:57:48.487Z,7.36
2022-10-31T20:00:47.094Z,7.31
2022-10-31T20:03:49.500Z,7.34
2022-10-31T20:06:51.264Z,7.35
2022-10-31T20:09:53.085Z,7.36
2022-10-31T20:12:54.721Z,7.26
2022-10-31T20:16:06.352Z,7.18
2022-10-31T20:19:08.333Z,7.14
2022-10-31T20:22:11.054Z,7.10
2022-10-31T20:25:12.800Z,7.14
2022-10-31T20:28:14.789Z,7.12
2022-10-31T20:31:20.267Z,7.13
2022-10-31T20:34:21.922Z,7.12
2022-10-31T20:37:23.698Z,7.05
2022-10-31T20:40:25.401Z,6.96
2022-10-31T20:43:27.106Z,6.82
2022-10-31T20:46:29.091Z,6.82
2022-10-31T20:49:30.801Z,6.89
2022-10-31T20:52:32.453Z,6.71
2022-10-31T20:55:34.032Z,6.70
2022-10-31T20:58:37.441Z,6.73
2022-10-31T21:01:39.301Z,6.69
2022-10-31T21:04:41.409Z,6.65
2022-10-31T21:07:43.188Z,6.58
2022-10-31T21:10:44.884Z,6.53
2022-10-31T21:13:47.140Z,6.49
2022-10-31T21:16:48.896Z,6.45
2022-10-31T21:19:50.526Z,6.39
2022-10-31T21:22:52.445Z,6.27
2022-10-31T21:25:54.187Z,6.20
2022-10-31T21:28:58.118Z,6.12
2022-10-31T21:31:59.927Z,6.07
2022-10-31T21:35:01.643Z,6.06
2022-10-31T21:38:03.840Z,6.10
2022-10-31T21:41:08.096Z,6.16
2022-10-31T21:44:09.860Z,6.18
2022-10-31T21:47:11.605Z,6.19
2022-10-31T21:50:13.811Z,6.26
2022-10-31T21:53:34.086Z,6.13
2022-10-31T21:56:36.247Z,6.03
2022-10-31T21:59:38.038Z,6.03
2022-10-31T22:02:39.864Z,6.05
2022-10-31T22:05:41.450Z,6.09
2022-10-31T22:08:43.165Z,6.12
2022-10-31T22:11:44.851Z,6.14
2022-10-31T22:14:49.013Z,6.16
2022-10-31T22:17:51.073Z,6.16
2022-10-31T22:20:52.794Z,6.17
2022-10-31T22:23:55.442Z,6.17
2022-10-31T22:26:57.204Z,6.16
2022-10-31T22:29:58.946Z,6.14
2022-10-31T22:33:01.049Z,6.12
2022-10-31T22:36:04.588Z,6.13
2022-10-31T22:39:07.110Z,6.10
2022-10-31T22:42:08.763Z,6.06
2022-10-31T22:45:11.107Z,6.03
2022-10-31T22:48:12.731Z,6.04
2022-10-31T22:51:24.996Z,6.05
2022-10-31T22:54:26.911Z,6.01
2022-10-31T22:57:28.677Z,5.95
2022-10-31T23:00:30.181Z,5.95
2022-10-31T23:03:31.833Z,5.97
2022-10-31T23:06:33.977Z,6.00
2022-10-31T23:09:35.901Z,6.01
2022-10-31T23:12:56.329Z,6.02
2022-10-31T23:15:57.979Z,6.03
2022-10-31T23:18:59.877Z,6.03
2022-10-31T23:22:04.191Z,6.00
2022-10-31T23:25:06.265Z,5.98
2022-10-31T23:28:07.904Z,5.94
2022-10-31T23:31:09.565Z,5.89
2022-10-31T23:34:11.318Z,5.86
2022-10-31T23:37:13.770Z,5.83
2022-10-31T23:40:15.779Z,5.81
2022-10-31T23:43:17.517Z,5.79
2022-10-31T23:46:19.145Z,5.75
2022-10-31T23:49:21.076Z,5.73
2022-10-31T23:52:22.880Z,5.70
2022-10-31T23:55:25.467Z,5.71
2022-10-31T23:58:27.071Z,5.71
